sensor_id;sensor_type;location;lat;lon;timestamp;temperature;humidity
8459;DHT22;4266;48.816;9.154;2023-03-01T00:02:34;-2.20;90.50
8459;DHT22;4266;48.816;9.154;2023-03-01T00:05:00;-2.20;90.70
8459;DHT22;4266;48.816;9.154;2023-03-01T00:07:26;-2.20;90.70
8459;DHT22;4266;48.816;9.154;2023-03-01T00:09:52;-2.20;90.80
8459;DHT22;4266;48.816;9.154;2023-03-01T00:12:18;-2.20;90.80
8459;DHT22;4266;48.816;9.154;2023-03-01T00:14:44;-2.20;91.00
8459;DHT22;4266;48.816;9.154;2023-03-01T00:17:09;-2.30;90.90
8459;DHT22;4266;48.816;9.154;2023-03-01T00:19:35;-2.30;91.00
8459;DHT22;4266;48.816;9.154;2023-03-01T00:22:01;-2.10;90.50
8459;DHT22;4266;48.816;9.154;2023-03-01T00:24:27;-2.10;90.50
8459;DHT22;4266;48.816;9.154;2023-03-01T00:26:53;-2.00;90.60
8459;DHT22;4266;48.816;9.154;2023-03-01T00:29:18;-2.00;90.50
8459;DHT22;4266;48.816;9.154;2023-03-01T00:31:44;-2.10;90.50
8459;DHT22;4266;48.816;9.154;2023-03-01T00:34:10;-2.20;90.80
8459;DHT22;4266;48.816;9.154;2023-03-01T00:36:36;-2.40;91.00
8459;DHT22;4266;48.816;9.154;2023-03-01T00:39:02;-2.40;91.50
8459;DHT22;4266;48.816;9.154;2023-03-01T00:41:27;-2.40;91.60
8459;DHT22;4266;48.816;9.154;2023-03-01T00:43:54;-2.50;91.90
8459;DHT22;4266;48.816;9.154;2023-03-01T00:46:20;-2.60;91.90
8459;DHT22;4266;48.816;9.154;2023-03-01T00:48:45;-2.60;92.00
8459;DHT22;4266;48.816;9.154;2023-03-01T00:51:13;-2.60;92.10
8459;DHT22;4266;48.816;9.154;2023-03-01T00:53:37;-2.60;91.90
8459;DHT22;4266;48.816;9.154;2023-03-01T00:56:03;-2.60;92.00
8459;DHT22;4266;48.816;9.154;2023-03-01T00:58:29;-2.60;91.70
8459;DHT22;4266;48.816;9.154;2023-03-01T01:00:54;-2.60;91.90
8459;DHT22;4266;48.816;9.154;2023-03-01T01:03:20;-2.60;92.30
8459;DHT22;4266;48.816;9.154;2023-03-01T01:05:46;-2.60;92.30
8459;DHT22;4266;48.816;9.154;2023-03-01T01:08:12;-2.60;92.20
8459;DHT22;4266;48.816;9.154;2023-03-01T01:10:37;-2.50;92.30
8459;DHT22;4266;48.816;9.154;2023-03-01T01:13:03;-2.50;92.00
8459;DHT22;4266;48.816;9.154;2023-03-01T01:15:29;-2.50;92.10
8459;DHT22;4266;48.816;9.154;2023-03-01T01:17:54;-2.50;92.30
8459;DHT22;4266;48.816;9.154;2023-03-01T01:20:20;-2.50;92.00
8459;DHT22;4266;48.816;9.154;2023-03-01T01:22:46;-2.50;92.30
8459;DHT22;4266;48.816;9.154;2023-03-01T01:25:12;-2.50;92.30
8459;DHT22;4266;48.816;9.154;2023-03-01T01:27:38;-2.50;92.40
8459;DHT22;4266;48.816;9.154;2023-03-01T01:30:04;-2.40;92.50
8459;DHT22;4266;48.816;9.154;2023-03-01T01:32:31;-2.50;92.60
8459;DHT22;4266;48.816;9.154;2023-03-01T01:34:57;-2.50;92.50
8459;DHT22;4266;48.816;9.154;2023-03-01T01:37:23;-2.40;92.80
8459;DHT22;4266;48.816;9.154;2023-03-01T01:39:49;-2.40;92.80
8459;DHT22;4266;48.816;9.154;2023-03-01T01:42:15;-2.40;92.70
8459;DHT22;4266;48.816;9.154;2023-03-01T01:44:40;-2.30;92.60
8459;DHT22;4266;48.816;9.154;2023-03-01T01:47:07;-2.40;92.60
8459;DHT22;4266;48.816;9.154;2023-03-01T01:49:33;-2.40;92.60
8459;DHT22;4266;48.816;9.154;2023-03-01T01:51:59;-2.40;93.00
8459;DHT22;4266;48.816;9.154;2023-03-01T01:54:26;-2.30;92.70
8459;DHT22;4266;48.816;9.154;2023-03-01T01:56:59;-2.30;92.50
8459;DHT22;4266;48.816;9.154;2023-03-01T01:59:26;-2.20;92.50
8459;DHT22;4266;48.816;9.154;2023-03-01T02:01:51;-2.10;92.50
8459;DHT22;4266;48.816;9.154;2023-03-01T02:04:17;-2.20;92.10
8459;DHT22;4266;48.816;9.154;2023-03-01T02:06:48;-2.20;92.10
8459;DHT22;4266;48.816;9.154;2023-03-01T02:09:12;-2.00;92.20
8459;DHT22;4266;48.816;9.154;2023-03-01T02:11:37;-2.10;92.20
8459;DHT22;4266;48.816;9.154;2023-03-01T02:14:03;-2.00;92.10
8459;DHT22;4266;48.816;9.154;2023-03-01T02:16:28;-2.00;92.20
8459;DHT22;4266;48.816;9.154;2023-03-01T02:18:54;-1.90;92.10
8459;DHT22;4266;48.816;9.154;2023-03-01T02:22:27;-1.90;92.10
8459;DHT22;4266;48.816;9.154;2023-03-01T02:24:03;-1.90;92.40
8459;DHT22;4266;48.816;9.154;2023-03-01T02:26:34;-2.10;92.40
8459;DHT22;4266;48.816;9.154;2023-03-01T02:28:58;-2.10;93.00
8459;DHT22;4266;48.816;9.154;2023-03-01T02:31:25;-1.90;92.40
8459;DHT22;4266;48.816;9.154;2023-03-01T02:33:57;-1.90;92.20
8459;DHT22;4266;48.816;9.154;2023-03-01T02:36:24;-1.80;91.90
8459;DHT22;4266;48.816;9.154;2023-03-01T02:38:50;-1.70;91.90
8459;DHT22;4266;48.816;9.154;2023-03-01T02:41:15;-1.60;91.70
8459;DHT22;4266;48.816;9.154;2023-03-01T02:43:41;-1.50;91.60
8459;DHT22;4266;48.816;9.154;2023-03-01T02:46:12;-1.50;91.60
8459;DHT22;4266;48.816;9.154;2023-03-01T02:48:41;-1.50;91.30
8459;DHT22;4266;48.816;9.154;2023-03-01T02:51:17;-1.50;91.40
8459;DHT22;4266;48.816;9.154;2023-03-01T02:53:49;-1.40;91.30
8459;DHT22;4266;48.816;9.154;2023-03-01T02:56:12;-1.20;91.00
8459;DHT22;4266;48.816;9.154;2023-03-01T02:58:38;-1.20;91.00
8459;DHT22;4266;48.816;9.154;2023-03-01T03:01:03;-1.10;90.70
8459;DHT22;4266;48.816;9.154;2023-03-01T03:03:29;-1.20;90.70
8459;DHT22;4266;48.816;9.154;2023-03-01T03:05:55;-1.30;90.70
8459;DHT22;4266;48.816;9.154;2023-03-01T03:08:21;-1.20;90.90
8459;DHT22;4266;48.816;9.154;2023-03-01T03:10:47;-1.20;90.90
8459;DHT22;4266;48.816;9.154;2023-03-01T03:13:13;-1.10;90.60
8459;DHT22;4266;48.816;9.154;2023-03-01T03:15:38;-1.10;90.70
8459;DHT22;4266;48.816;9.154;2023-03-01T03:18:06;-1.00;90.80
8459;DHT22;4266;48.816;9.154;2023-03-01T03:20:30;-0.90;90.60
8459;DHT22;4266;48.816;9.154;2023-03-01T03:22:56;-0.90;90.60
8459;DHT22;4266;48.816;9.154;2023-03-01T03:25:22;-0.90;90.30
8459;DHT22;4266;48.816;9.154;2023-03-01T03:27:48;-0.90;90.20
8459;DHT22;4266;48.816;9.154;2023-03-01T03:30:14;-0.90;90.30
8459;DHT22;4266;48.816;9.154;2023-03-01T03:32:40;-0.80;90.50
8459;DHT22;4266;48.816;9.154;2023-03-01T03:35:06;-0.80;90.50
8459;DHT22;4266;48.816;9.154;2023-03-01T03:37:31;-0.80;90.40
8459;DHT22;4266;48.816;9.154;2023-03-01T03:40:04;-0.70;90.20
8459;DHT22;4266;48.816;9.154;2023-03-01T03:42:30;-0.70;90.20
8459;DHT22;4266;48.816;9.154;2023-03-01T03:44:55;-0.60;90.10
8459;DHT22;4266;48.816;9.154;2023-03-01T03:47:21;-0.50;90.00
8459;DHT22;4266;48.816;9.154;2023-03-01T03:49:48;-0.50;90.00
8459;DHT22;4266;48.816;9.154;2023-03-01T03:52:13;-0.60;90.00
8459;DHT22;4266;48.816;9.154;2023-03-01T03:54:40;-0.50;90.20
8459;DHT22;4266;48.816;9.154;2023-03-01T03:57:06;-0.40;90.00
8459;DHT22;4266;48.816;9.154;2023-03-01T03:59:32;-0.40;89.70
8459;DHT22;4266;48.816;9.154;2023-03-01T04:01:57;-0.40;89.70
8459;DHT22;4266;48.816;9.154;2023-03-01T04:04:23;-0.30;89.70
8459;DHT22;4266;48.816;9.154;2023-03-01T04:06:49;-0.40;89.50
8459;DHT22;4266;48.816;9.154;2023-03-01T04:09:14;-0.30;89.80
8459;DHT22;4266;48.816;9.154;2023-03-01T04:11:40;-0.40;89.80
8459;DHT22;4266;48.816;9.154;2023-03-01T04:14:06;-0.30;89.90
8459;DHT22;4266;48.816;9.154;2023-03-01T04:16:32;-0.50;89.90
8459;DHT22;4266;48.816;9.154;2023-03-01T04:18:58;-0.50;89.80
8459;DHT22;4266;48.816;9.154;2023-03-01T04:21:23;-0.50;89.90
8459;DHT22;4266;48.816;9.154;2023-03-01T04:23:49;-0.60;89.70
8459;DHT22;4266;48.816;9.154;2023-03-01T04:26:16;-0.50;89.90
8459;DHT22;4266;48.816;9.154;2023-03-01T04:28:42;-0.50;89.90
8459;DHT22;4266;48.816;9.154;2023-03-01T04:31:08;-0.30;89.80
8459;DHT22;4266;48.816;9.154;2023-03-01T04:33:33;-0.30;89.80
8459;DHT22;4266;48.816;9.154;2023-03-01T04:35:58;-0.30;90.00
8459;DHT22;4266;48.816;9.154;2023-03-01T04:38:24;-0.30;89.00
8459;DHT22;4266;48.816;9.154;2023-03-01T04:40:50;-0.30;89.50
8459;DHT22;4266;48.816;9.154;2023-03-01T04:43:16;-0.30;89.20
8459;DHT22;4266;48.816;9.154;2023-03-01T04:45:42;-0.20;89.20
8459;DHT22;4266;48.816;9.154;2023-03-01T04:48:08;-0.20;89.20
8459;DHT22;4266;48.816;9.154;2023-03-01T04:50:34;-0.20;89.20
8459;DHT22;4266;48.816;9.154;2023-03-01T04:53:00;-0.10;88.90
8459;DHT22;4266;48.816;9.154;2023-03-01T04:55:26;-0.10;88.90
8459;DHT22;4266;48.816;9.154;2023-03-01T04:57:52;-0.10;88.90
8459;DHT22;4266;48.816;9.154;2023-03-01T05:00:18;0.00;88.60
8459;DHT22;4266;48.816;9.154;2023-03-01T05:02:50;-0.10;88.50
8459;DHT22;4266;48.816;9.154;2023-03-01T05:05:15;-0.10;88.90
8459;DHT22;4266;48.816;9.154;2023-03-01T05:07:41;-0.10;88.30
8459;DHT22;4266;48.816;9.154;2023-03-01T05:10:08;0.00;88.50
8459;DHT22;4266;48.816;9.154;2023-03-01T05:12:34;0.00;88.50
8459;DHT22;4266;48.816;9.154;2023-03-01T05:15:00;0.00;88.50
8459;DHT22;4266;48.816;9.154;2023-03-01T05:17:26;0.00;88.30
8459;DHT22;4266;48.816;9.154;2023-03-01T05:19:52;0.00;88.10
8459;DHT22;4266;48.816;9.154;2023-03-01T05:22:18;0.00;88.10
8459;DHT22;4266;48.816;9.154;2023-03-01T05:24:44;0.10;88.60
8459;DHT22;4266;48.816;9.154;2023-03-01T05:27:09;0.10;88.50
8459;DHT22;4266;48.816;9.154;2023-03-01T05:29:35;0.00;88.40
8459;DHT22;4266;48.816;9.154;2023-03-01T05:32:01;0.10;88.40
8459;DHT22;4266;48.816;9.154;2023-03-01T05:34:28;0.10;88.50
8459;DHT22;4266;48.816;9.154;2023-03-01T05:36:52;0.10;87.90
8459;DHT22;4266;48.816;9.154;2023-03-01T05:39:18;0.10;88.20
8459;DHT22;4266;48.816;9.154;2023-03-01T05:41:43;0.10;88.30
8459;DHT22;4266;48.816;9.154;2023-03-01T05:44:09;-0.10;87.80
8459;DHT22;4266;48.816;9.154;2023-03-01T05:46:34;0.10;88.70
8459;DHT22;4266;48.816;9.154;2023-03-01T05:49:00;0.00;88.70
8459;DHT22;4266;48.816;9.154;2023-03-01T05:51:26;0.10;88.20
8459;DHT22;4266;48.816;9.154;2023-03-01T05:53:51;0.10;88.00
8459;DHT22;4266;48.816;9.154;2023-03-01T05:56:18;0.10;88.10
8459;DHT22;4266;48.816;9.154;2023-03-01T05:58:44;0.10;88.10
8459;DHT22;4266;48.816;9.154;2023-03-01T06:01:11;0.00;88.20
8459;DHT22;4266;48.816;9.154;2023-03-01T06:03:37;0.00;88.20
8459;DHT22;4266;48.816;9.154;2023-03-01T06:06:03;0.00;88.20
8459;DHT22;4266;48.816;9.154;2023-03-01T06:08:30;0.10;88.10
8459;DHT22;4266;48.816;9.154;2023-03-01T06:10:55;0.10;88.10
8459;DHT22;4266;48.816;9.154;2023-03-01T06:13:25;0.20;88.20
8459;DHT22;4266;48.816;9.154;2023-03-01T06:15:51;0.20;88.20
8459;DHT22;4266;48.816;9.154;2023-03-01T06:18:17;0.30;88.10
8459;DHT22;4266;48.816;9.154;2023-03-01T06:20:42;0.40;87.90
8459;DHT22;4266;48.816;9.154;2023-03-01T06:23:08;0.30;87.20
8459;DHT22;4266;48.816;9.154;2023-03-01T06:25:34;0.30;87.70
8459;DHT22;4266;48.816;9.154;2023-03-01T06:28:00;0.20;87.50
8459;DHT22;4266;48.816;9.154;2023-03-01T06:30:26;0.20;87.80
8459;DHT22;4266;48.816;9.154;2023-03-01T06:32:52;0.10;87.60
8459;DHT22;4266;48.816;9.154;2023-03-01T06:35:18;0.10;87.60
8459;DHT22;4266;48.816;9.154;2023-03-01T06:37:43;0.10;87.50
8459;DHT22;4266;48.816;9.154;2023-03-01T06:40:10;0.00;87.70
8459;DHT22;4266;48.816;9.154;2023-03-01T06:42:38;0.00;87.60
8459;DHT22;4266;48.816;9.154;2023-03-01T06:45:03;0.10;87.70
8459;DHT22;4266;48.816;9.154;2023-03-01T06:47:29;0.80;87.80
8459;DHT22;4266;48.816;9.154;2023-03-01T06:49:55;1.30;86.20
8459;DHT22;4266;48.816;9.154;2023-03-01T06:52:20;1.90;85.60
8459;DHT22;4266;48.816;9.154;2023-03-01T06:54:46;2.50;83.60
8459;DHT22;4266;48.816;9.154;2023-03-01T06:57:12;3.00;81.90
8459;DHT22;4266;48.816;9.154;2023-03-01T06:59:37;3.30;80.60
8459;DHT22;4266;48.816;9.154;2023-03-01T07:02:03;3.70;79.50
8459;DHT22;4266;48.816;9.154;2023-03-01T07:04:29;4.60;78.10
8459;DHT22;4266;48.816;9.154;2023-03-01T07:06:54;4.90;75.70
8459;DHT22;4266;48.816;9.154;2023-03-01T07:09:22;5.00;72.80
8459;DHT22;4266;48.816;9.154;2023-03-01T07:11:48;5.00;72.80
8459;DHT22;4266;48.816;9.154;2023-03-01T07:14:13;4.90;70.80
8459;DHT22;4266;48.816;9.154;2023-03-01T07:16:40;5.80;69.00
8459;DHT22;4266;48.816;9.154;2023-03-01T07:19:05;5.80;68.80
8459;DHT22;4266;48.816;9.154;2023-03-01T07:21:31;6.20;67.20
8459;DHT22;4266;48.816;9.154;2023-03-01T07:23:57;7.20;63.50
8459;DHT22;4266;48.816;9.154;2023-03-01T07:26:23;7.10;63.40
8459;DHT22;4266;48.816;9.154;2023-03-01T07:28:48;7.60;61.10
8459;DHT22;4266;48.816;9.154;2023-03-01T07:31:14;7.40;59.30
8459;DHT22;4266;48.816;9.154;2023-03-01T07:33:40;7.70;59.30
8459;DHT22;4266;48.816;9.154;2023-03-01T07:36:07;8.50;57.20
8459;DHT22;4266;48.816;9.154;2023-03-01T07:38:33;8.40;56.70
8459;DHT22;4266;48.816;9.154;2023-03-01T07:40:59;8.40;56.70
8459;DHT22;4266;48.816;9.154;2023-03-01T07:43:25;9.00;56.30
8459;DHT22;4266;48.816;9.154;2023-03-01T07:45:50;8.90;55.30
8459;DHT22;4266;48.816;9.154;2023-03-01T07:48:16;9.30;54.40
8459;DHT22;4266;48.816;9.154;2023-03-01T07:50:41;9.60;54.00
8459;DHT22;4266;48.816;9.154;2023-03-01T07:53:08;8.90;54.10
8459;DHT22;4266;48.816;9.154;2023-03-01T07:55:33;10.10;52.70
8459;DHT22;4266;48.816;9.154;2023-03-01T07:57:58;10.20;51.80
8459;DHT22;4266;48.816;9.154;2023-03-01T08:00:24;10.40;50.70
8459;DHT22;4266;48.816;9.154;2023-03-01T08:02:50;10.40;50.20
8459;DHT22;4266;48.816;9.154;2023-03-01T08:05:16;10.70;50.10
8459;DHT22;4266;48.816;9.154;2023-03-01T08:07:41;11.50;49.50
8459;DHT22;4266;48.816;9.154;2023-03-01T08:10:09;11.20;48.60
8459;DHT22;4266;48.816;9.154;2023-03-01T08:12:35;11.20;48.50
8459;DHT22;4266;48.816;9.154;2023-03-01T08:15:02;12.00;47.70
8459;DHT22;4266;48.816;9.154;2023-03-01T08:17:27;12.00;47.70
8459;DHT22;4266;48.816;9.154;2023-03-01T08:19:53;12.10;46.30
8459;DHT22;4266;48.816;9.154;2023-03-01T08:22:19;12.10;46.30
8459;DHT22;4266;48.816;9.154;2023-03-01T08:24:44;12.00;46.00
8459;DHT22;4266;48.816;9.154;2023-03-01T08:27:10;12.60;45.90
8459;DHT22;4266;48.816;9.154;2023-03-01T08:29:36;12.30;45.40
8459;DHT22;4266;48.816;9.154;2023-03-01T08:32:02;12.30;45.40
8459;DHT22;4266;48.816;9.154;2023-03-01T08:34:28;12.00;44.80
8459;DHT22;4266;48.816;9.154;2023-03-01T08:36:54;12.50;45.10
8459;DHT22;4266;48.816;9.154;2023-03-01T08:39:20;12.80;44.30
8459;DHT22;4266;48.816;9.154;2023-03-01T08:41:45;12.70;44.40
8459;DHT22;4266;48.816;9.154;2023-03-01T08:44:11;13.80;44.50
8459;DHT22;4266;48.816;9.154;2023-03-01T08:46:37;13.00;44.00
8459;DHT22;4266;48.816;9.154;2023-03-01T08:49:04;13.10;42.80
8459;DHT22;4266;48.816;9.154;2023-03-01T08:51:29;14.30;43.50
8459;DHT22;4266;48.816;9.154;2023-03-01T08:53:55;14.30;43.50
8459;DHT22;4266;48.816;9.154;2023-03-01T08:56:21;14.50;42.40
8459;DHT22;4266;48.816;9.154;2023-03-01T08:58:47;15.20;42.80
8459;DHT22;4266;48.816;9.154;2023-03-01T09:01:13;15.00;41.50
8459;DHT22;4266;48.816;9.154;2023-03-01T09:03:38;14.80;41.10
8459;DHT22;4266;48.816;9.154;2023-03-01T09:06:04;15.10;41.40
8459;DHT22;4266;48.816;9.154;2023-03-01T09:08:30;14.60;39.90
8459;DHT22;4266;48.816;9.154;2023-03-01T09:10:55;15.30;40.60
8459;DHT22;4266;48.816;9.154;2023-03-01T09:13:21;15.80;40.00
8459;DHT22;4266;48.816;9.154;2023-03-01T09:15:48;15.00;39.70
8459;DHT22;4266;48.816;9.154;2023-03-01T09:18:13;15.00;39.70
8459;DHT22;4266;48.816;9.154;2023-03-01T09:20:39;15.50;39.60
8459;DHT22;4266;48.816;9.154;2023-03-01T09:23:06;15.60;39.50
8459;DHT22;4266;48.816;9.154;2023-03-01T09:25:31;15.50;39.70
8459;DHT22;4266;48.816;9.154;2023-03-01T09:27:57;16.20;40.10
8459;DHT22;4266;48.816;9.154;2023-03-01T09:30:23;16.70;39.10
8459;DHT22;4266;48.816;9.154;2023-03-01T09:32:48;17.00;38.90
8459;DHT22;4266;48.816;9.154;2023-03-01T09:35:14;16.30;38.30
8459;DHT22;4266;48.816;9.154;2023-03-01T09:37:40;16.80;38.20
8459;DHT22;4266;48.816;9.154;2023-03-01T09:40:11;16.50;37.50
8459;DHT22;4266;48.816;9.154;2023-03-01T09:42:35;16.50;37.50
8459;DHT22;4266;48.816;9.154;2023-03-01T09:45:03;17.10;37.80
8459;DHT22;4266;48.816;9.154;2023-03-01T09:47:28;16.90;37.10
8459;DHT22;4266;48.816;9.154;2023-03-01T09:50:00;16.30;36.90
8459;DHT22;4266;48.816;9.154;2023-03-01T09:52:28;16.60;37.00
8459;DHT22;4266;48.816;9.154;2023-03-01T09:54:54;16.60;36.80
8459;DHT22;4266;48.816;9.154;2023-03-01T09:57:18;16.00;36.80
8459;DHT22;4266;48.816;9.154;2023-03-01T09:59:49;17.00;36.80
8459;DHT22;4266;48.816;9.154;2023-03-01T10:02:21;17.50;36.10
8459;DHT22;4266;48.816;9.154;2023-03-01T10:04:48;17.40;36.10
8459;DHT22;4266;48.816;9.154;2023-03-01T10:07:38;17.60;37.10
8459;DHT22;4266;48.816;9.154;2023-03-01T10:09:58;17.80;36.70
8459;DHT22;4266;48.816;9.154;2023-03-01T10:12:26;18.80;36.70
8459;DHT22;4266;48.816;9.154;2023-03-01T10:15:04;18.90;36.60
8459;DHT22;4266;48.816;9.154;2023-03-01T10:17:34;19.70;36.60
8459;DHT22;4266;48.816;9.154;2023-03-01T10:22:42;19.50;35.40
8459;DHT22;4266;48.816;9.154;2023-03-01T10:25:08;19.50;35.40
8459;DHT22;4266;48.816;9.154;2023-03-01T10:27:39;18.60;35.40
8459;DHT22;4266;48.816;9.154;2023-03-01T10:30:38;19.20;35.10
8459;DHT22;4266;48.816;9.154;2023-03-01T10:32:46;18.50;35.00
8459;DHT22;4266;48.816;9.154;2023-03-01T10:35:17;18.50;34.40
8459;DHT22;4266;48.816;9.154;2023-03-01T10:40:20;19.70;34.40
8459;DHT22;4266;48.816;9.154;2023-03-01T10:42:46;18.70;33.90
8459;DHT22;4266;48.816;9.154;2023-03-01T10:45:26;19.30;34.10
8459;DHT22;4266;48.816;9.154;2023-03-01T10:47:42;20.10;34.30
8459;DHT22;4266;48.816;9.154;2023-03-01T10:52:40;19.20;33.60
8459;DHT22;4266;48.816;9.154;2023-03-01T10:55:30;19.70;34.10
8459;DHT22;4266;48.816;9.154;2023-03-01T10:58:06;19.50;33.70
8459;DHT22;4266;48.816;9.154;2023-03-01T11:00:23;18.90;33.50
8459;DHT22;4266;48.816;9.154;2023-03-01T11:02:50;19.60;33.50
8459;DHT22;4266;48.816;9.154;2023-03-01T11:05:17;19.40;33.40
8459;DHT22;4266;48.816;9.154;2023-03-01T11:07:49;19.60;33.00
8459;DHT22;4266;48.816;9.154;2023-03-01T11:10:17;19.10;33.10
8459;DHT22;4266;48.816;9.154;2023-03-01T11:12:41;18.90;33.00
8459;DHT22;4266;48.816;9.154;2023-03-01T11:15:08;18.90;33.10
8459;DHT22;4266;48.816;9.154;2023-03-01T11:17:34;19.30;33.50
8459;DHT22;4266;48.816;9.154;2023-03-01T11:20:05;19.00;32.80
8459;DHT22;4266;48.816;9.154;2023-03-01T11:22:28;18.80;33.20
8459;DHT22;4266;48.816;9.154;2023-03-01T11:24:54;18.80;33.20
8459;DHT22;4266;48.816;9.154;2023-03-01T11:27:21;18.80;32.90
8459;DHT22;4266;48.816;9.154;2023-03-01T11:29:46;19.20;33.00
8459;DHT22;4266;48.816;9.154;2023-03-01T11:32:11;18.90;33.00
8459;DHT22;4266;48.816;9.154;2023-03-01T11:34:44;18.50;33.40
8459;DHT22;4266;48.816;9.154;2023-03-01T11:37:15;18.20;32.90
8459;DHT22;4266;48.816;9.154;2023-03-01T11:39:43;19.40;33.30
8459;DHT22;4266;48.816;9.154;2023-03-01T11:42:13;19.30;32.80
8459;DHT22;4266;48.816;9.154;2023-03-01T11:44:38;18.60;32.60
8459;DHT22;4266;48.816;9.154;2023-03-01T11:47:13;18.50;32.50
8459;DHT22;4266;48.816;9.154;2023-03-01T11:49:50;18.90;33.20
8459;DHT22;4266;48.816;9.154;2023-03-01T11:52:20;19.00;32.90
8459;DHT22;4266;48.816;9.154;2023-03-01T11:57:58;18.20;32.80
8459;DHT22;4266;48.816;9.154;2023-03-01T12:00:33;18.70;33.00
8459;DHT22;4266;48.816;9.154;2023-03-01T12:02:58;18.60;32.50
8459;DHT22;4266;48.816;9.154;2023-03-01T12:08:24;18.50;32.40
8459;DHT22;4266;48.816;9.154;2023-03-01T12:13:52;18.40;33.00
8459;DHT22;4266;48.816;9.154;2023-03-01T12:17:06;18.00;32.40
8459;DHT22;4266;48.816;9.154;2023-03-01T12:22:59;18.50;32.80
8459;DHT22;4266;48.816;9.154;2023-03-01T12:24:37;18.60;32.80
8459;DHT22;4266;48.816;9.154;2023-03-01T12:27:12;17.60;32.90
8459;DHT22;4266;48.816;9.154;2023-03-01T12:29:40;17.80;33.30
8459;DHT22;4266;48.816;9.154;2023-03-01T12:32:23;17.20;32.90
8459;DHT22;4266;48.816;9.154;2023-03-01T12:35:06;17.20;32.90
8459;DHT22;4266;48.816;9.154;2023-03-01T12:37:36;17.20;32.90
8459;DHT22;4266;48.816;9.154;2023-03-01T12:40:09;17.40;33.50
8459;DHT22;4266;48.816;9.154;2023-03-01T12:42:40;17.30;32.90
8459;DHT22;4266;48.816;9.154;2023-03-01T12:45:24;17.30;32.90
8459;DHT22;4266;48.816;9.154;2023-03-01T12:47:39;18.50;33.80
8459;DHT22;4266;48.816;9.154;2023-03-01T12:50:02;18.50;33.80
8459;DHT22;4266;48.816;9.154;2023-03-01T12:52:44;19.00;33.10
8459;DHT22;4266;48.816;9.154;2023-03-01T12:57:42;16.90;33.00
8459;DHT22;4266;48.816;9.154;2023-03-01T13:00:27;16.80;32.80
8459;DHT22;4266;48.816;9.154;2023-03-01T13:03:00;17.60;33.10
8459;DHT22;4266;48.816;9.154;2023-03-01T13:05:44;17.60;33.10
8459;DHT22;4266;48.816;9.154;2023-03-01T13:08:12;17.90;33.40
8459;DHT22;4266;48.816;9.154;2023-03-01T13:10:42;16.90;33.20
8459;DHT22;4266;48.816;9.154;2023-03-01T13:13:12;16.90;33.60
8459;DHT22;4266;48.816;9.154;2023-03-01T13:15:36;16.80;33.60
8459;DHT22;4266;48.816;9.154;2023-03-01T13:20:46;16.90;33.80
8459;DHT22;4266;48.816;9.154;2023-03-01T13:26:01;15.80;33.60
8459;DHT22;4266;48.816;9.154;2023-03-01T13:28:48;15.60;33.40
8459;DHT22;4266;48.816;9.154;2023-03-01T13:34:39;15.50;33.70
8459;DHT22;4266;48.816;9.154;2023-03-01T13:36:52;15.40;33.70
8459;DHT22;4266;48.816;9.154;2023-03-01T13:39:28;15.30;33.60
8459;DHT22;4266;48.816;9.154;2023-03-01T13:41:53;14.30;33.90
8459;DHT22;4266;48.816;9.154;2023-03-01T13:44:32;13.80;34.10
8459;DHT22;4266;48.816;9.154;2023-03-01T13:46:57;14.20;34.40
8459;DHT22;4266;48.816;9.154;2023-03-01T13:49:22;14.30;34.10
8459;DHT22;4266;48.816;9.154;2023-03-01T13:51:48;13.50;34.40
8459;DHT22;4266;48.816;9.154;2023-03-01T13:54:14;12.90;34.50
8459;DHT22;4266;48.816;9.154;2023-03-01T13:56:39;12.40;34.60
8459;DHT22;4266;48.816;9.154;2023-03-01T13:59:06;12.60;35.30
8459;DHT22;4266;48.816;9.154;2023-03-01T14:01:32;12.60;35.00
8459;DHT22;4266;48.816;9.154;2023-03-01T14:03:57;12.90;35.10
8459;DHT22;4266;48.816;9.154;2023-03-01T14:06:26;12.70;35.40
8459;DHT22;4266;48.816;9.154;2023-03-01T14:08:52;12.10;35.10
8459;DHT22;4266;48.816;9.154;2023-03-01T14:11:34;11.70;35.60
8459;DHT22;4266;48.816;9.154;2023-03-01T14:19:20;10.40;36.00
8459;DHT22;4266;48.816;9.154;2023-03-01T14:21:45;10.50;36.20
8459;DHT22;4266;48.816;9.154;2023-03-01T14:24:17;10.00;36.20
8459;DHT22;4266;48.816;9.154;2023-03-01T14:26:42;9.70;37.20
8459;DHT22;4266;48.816;9.154;2023-03-01T14:29:22;9.30;37.30
8459;DHT22;4266;48.816;9.154;2023-03-01T14:31:36;9.10;37.60
8459;DHT22;4266;48.816;9.154;2023-03-01T14:34:01;9.10;38.00
8459;DHT22;4266;48.816;9.154;2023-03-01T14:36:27;8.70;38.10
8459;DHT22;4266;48.816;9.154;2023-03-01T14:38:52;8.60;38.60
8459;DHT22;4266;48.816;9.154;2023-03-01T14:41:19;8.60;38.60
8459;DHT22;4266;48.816;9.154;2023-03-01T14:43:47;8.50;38.70
8459;DHT22;4266;48.816;9.154;2023-03-01T14:46:20;8.60;38.90
8459;DHT22;4266;48.816;9.154;2023-03-01T14:48:47;8.40;38.80
8459;DHT22;4266;48.816;9.154;2023-03-01T14:51:11;8.10;38.90
8459;DHT22;4266;48.816;9.154;2023-03-01T14:53:37;8.10;39.30
8459;DHT22;4266;48.816;9.154;2023-03-01T14:56:02;8.00;39.40
8459;DHT22;4266;48.816;9.154;2023-03-01T14:58:28;7.90;39.50
8459;DHT22;4266;48.816;9.154;2023-03-01T15:00:57;7.90;39.90
8459;DHT22;4266;48.816;9.154;2023-03-01T15:03:25;7.70;39.80
8459;DHT22;4266;48.816;9.154;2023-03-01T15:05:50;7.70;39.80
8459;DHT22;4266;48.816;9.154;2023-03-01T15:08:19;7.70;39.80
8459;DHT22;4266;48.816;9.154;2023-03-01T15:10:55;7.50;39.90
8459;DHT22;4266;48.816;9.154;2023-03-01T15:13:19;7.40;39.90
8459;DHT22;4266;48.816;9.154;2023-03-01T15:15:41;7.30;40.10
8459;DHT22;4266;48.816;9.154;2023-03-01T15:18:12;7.30;40.30
8459;DHT22;4266;48.816;9.154;2023-03-01T15:20:32;7.30;40.70
8459;DHT22;4266;48.816;9.154;2023-03-01T15:22:58;7.30;40.70
8459;DHT22;4266;48.816;9.154;2023-03-01T15:25:25;7.30;40.50
8459;DHT22;4266;48.816;9.154;2023-03-01T15:27:51;7.10;40.60
8459;DHT22;4266;48.816;9.154;2023-03-01T15:30:20;7.10;40.60
8459;DHT22;4266;48.816;9.154;2023-03-01T15:32:44;7.10;40.70
8459;DHT22;4266;48.816;9.154;2023-03-01T15:37:49;7.00;40.90
8459;DHT22;4266;48.816;9.154;2023-03-01T15:40:19;6.90;41.00
8459;DHT22;4266;48.816;9.154;2023-03-01T15:42:43;6.90;41.20
8459;DHT22;4266;48.816;9.154;2023-03-01T15:45:20;6.90;41.10
8459;DHT22;4266;48.816;9.154;2023-03-01T15:47:39;6.90;41.20
8459;DHT22;4266;48.816;9.154;2023-03-01T15:50:03;6.80;41.00
8459;DHT22;4266;48.816;9.154;2023-03-01T15:52:32;6.80;41.30
8459;DHT22;4266;48.816;9.154;2023-03-01T15:54:56;6.80;41.30
8459;DHT22;4266;48.816;9.154;2023-03-01T15:57:21;6.70;41.30
8459;DHT22;4266;48.816;9.154;2023-03-01T15:59:47;6.70;41.40
8459;DHT22;4266;48.816;9.154;2023-03-01T16:02:12;6.70;41.60
8459;DHT22;4266;48.816;9.154;2023-03-01T16:04:39;6.70;41.70
8459;DHT22;4266;48.816;9.154;2023-03-01T16:07:04;6.60;41.90
8459;DHT22;4266;48.816;9.154;2023-03-01T16:09:29;6.70;42.00
8459;DHT22;4266;48.816;9.154;2023-03-01T16:11:55;6.60;42.00
8459;DHT22;4266;48.816;9.154;2023-03-01T16:14:22;6.50;42.00
8459;DHT22;4266;48.816;9.154;2023-03-01T16:16:47;6.50;42.30
8459;DHT22;4266;48.816;9.154;2023-03-01T16:19:14;6.40;41.80
8459;DHT22;4266;48.816;9.154;2023-03-01T16:21:41;6.30;42.00
8459;DHT22;4266;48.816;9.154;2023-03-01T16:24:06;6.20;41.90
8459;DHT22;4266;48.816;9.154;2023-03-01T16:26:33;6.20;42.10
8459;DHT22;4266;48.816;9.154;2023-03-01T16:28:59;6.20;42.10
8459;DHT22;4266;48.816;9.154;2023-03-01T16:31:25;6.20;42.30
8459;DHT22;4266;48.816;9.154;2023-03-01T16:33:53;6.10;42.20
8459;DHT22;4266;48.816;9.154;2023-03-01T16:36:18;6.00;42.40
8459;DHT22;4266;48.816;9.154;2023-03-01T16:38:44;6.00;42.30
8459;DHT22;4266;48.816;9.154;2023-03-01T16:41:11;6.00;42.50
8459;DHT22;4266;48.816;9.154;2023-03-01T16:43:35;5.90;42.60
8459;DHT22;4266;48.816;9.154;2023-03-01T16:46:01;5.90;42.60